createdAt,value
2023-09-13T00:04:35.468Z,43.63
2023-09-13T00:09:39.595Z,43.68
2023-09-13T00:14:41.495Z,43.68
2023-09-13T00:19:43.512Z,43.60
2023-09-13T00:24:46.798Z,43.46
2023-09-13T00:29:49.272Z,43.83
2023-09-13T00:34:51.706Z,43.86
2023-09-13T00:39:53.743Z,43.66
2023-09-13T00:44:55.676Z,43.56
2023-09-13T00:49:57.646Z,43.63
2023-09-13T00:55:00.030Z,43.62
2023-09-13T01:00:10.202Z,43.83
2023-09-13T01:05:15.023Z,43.69
2023-09-13T01:10:17.025Z,43.71
2023-09-13T01:15:19.207Z,43.56
2023-09-13T01:20:45.815Z,43.64
2023-09-13T01:26:06.456Z,43.82
2023-09-13T01:31:12.835Z,43.94
2023-09-13T01:36:15.461Z,43.90
2023-09-13T01:41:26.296Z,43.68
2023-09-13T01:46:34.485Z,43.79
2023-09-13T01:51:37.324Z,43.98
2023-09-13T01:56:39.239Z,43.72
2023-09-13T02:01:41.492Z,43.79
2023-09-13T02:06:43.564Z,43.89
2023-09-13T02:11:45.526Z,43.82
2023-09-13T02:16:47.568Z,43.80
2023-09-13T02:21:49.755Z,43.76
2023-09-13T02:26:58.921Z,43.95
2023-09-13T02:32:01.191Z,43.66
2023-09-13T02:37:03.263Z,43.95
2023-09-13T02:42:06.835Z,43.75
2023-09-13T02:47:08.951Z,43.78
2023-09-13T02:52:10.935Z,43.97
2023-09-13T02:57:13.064Z,43.81
2023-09-13T03:02:15.068Z,43.81
2023-09-13T03:07:17.317Z,43.91
2023-09-13T03:12:19.398Z,43.98
2023-09-13T03:17:21.290Z,43.77
2023-09-13T03:22:23.232Z,43.57
2023-09-13T03:27:25.127Z,43.92
2023-09-13T03:32:27.367Z,43.69
2023-09-13T03:37:29.679Z,43.97
2023-09-13T03:42:31.641Z,43.98
2023-09-13T03:47:33.721Z,44.20
2023-09-13T03:52:35.619Z,43.99
2023-09-13T03:57:37.532Z,44.12
2023-09-13T04:02:39.434Z,44.22
2023-09-13T04:07:41.389Z,44.14
2023-09-13T04:12:43.333Z,44.15
2023-09-13T04:17:45.471Z,44.26
2023-09-13T04:22:47.972Z,44.19
2023-09-13T04:27:50.121Z,44.06
2023-09-13T04:32:52.775Z,44.07
2023-09-13T04:37:55.463Z,43.90
2023-09-13T04:43:17.306Z,44.07
2023-09-13T04:48:19.342Z,44.06
2023-09-13T04:53:21.326Z,43.85
2023-09-13T04:58:23.388Z,44.11
2023-09-13T05:03:25.699Z,44.03
2023-09-13T05:08:27.625Z,43.89
2023-09-13T05:13:29.644Z,43.81
2023-09-13T05:18:31.848Z,43.78
2023-09-13T05:23:33.986Z,44.01
2023-09-13T05:28:35.930Z,43.90
2023-09-13T05:33:38.012Z,43.83
2023-09-13T05:38:40.630Z,43.98
2023-09-13T05:43:44.468Z,43.76
2023-09-13T05:48:46.925Z,44.05
2023-09-13T05:53:48.908Z,44.00
2023-09-13T05:58:50.911Z,43.92
2023-09-13T06:03:52.987Z,43.76
2023-09-13T06:08:55.004Z,43.89
2023-09-13T06:13:57.010Z,44.04
2023-09-13T06:18:58.958Z,44.46
2023-09-13T06:24:00.971Z,44.49
2023-09-13T06:29:03.622Z,44.28
2023-09-13T06:34:22.450Z,44.14
2023-09-13T06:39:27.889Z,43.96
2023-09-13T06:44:43.117Z,43.83
2023-09-13T06:49:49.301Z,44.02
2023-09-13T06:54:53.299Z,44.07
2023-09-13T07:00:00.584Z,43.41
2023-09-13T07:10:09.537Z,42.97
2023-09-13T07:15:11.635Z,42.93
2023-09-13T07:20:13.636Z,44.93
2023-09-13T07:25:15.823Z,44.65
2023-09-13T07:30:17.784Z,44.93
2023-09-13T07:35:21.923Z,44.64
2023-09-13T07:40:23.814Z,44.03
2023-09-13T07:45:26.160Z,44.35
2023-09-13T07:50:38.504Z,44.34
2023-09-13T07:55:41.490Z,44.35
2023-09-13T08:00:45.246Z,44.23
2023-09-13T08:05:49.056Z,44.30
2023-09-13T08:10:51.784Z,44.29
2023-09-13T08:15:54.162Z,44.49
2023-09-13T08:20:56.091Z,44.33
2023-09-13T08:26:08.686Z,44.72
2023-09-13T08:31:19.461Z,44.54
2023-09-13T08:36:21.592Z,44.73
2023-09-13T08:41:23.759Z,44.63
2023-09-13T08:46:26.342Z,44.90
2023-09-13T08:51:30.240Z,44.81
2023-09-13T08:56:32.872Z,44.74
2023-09-13T09:01:35.185Z,44.79
2023-09-13T09:06:37.888Z,44.81
2023-09-13T09:11:44.449Z,44.77
2023-09-13T09:16:48.306Z,44.80
2023-09-13T09:21:50.586Z,44.88
2023-09-13T09:26:55.813Z,44.94
2023-09-13T09:31:59.799Z,44.93
2023-09-13T09:37:08.644Z,44.62
2023-09-13T09:42:17.300Z,44.98
2023-09-13T09:47:20.193Z,44.69
2023-09-13T09:52:22.157Z,45.01
2023-09-13T09:57:24.679Z,45.62
2023-09-13T10:02:29.850Z,45.52
2023-09-13T10:07:32.198Z,45.23
2023-09-13T10:12:45.432Z,45.33
2023-09-13T10:17:49.742Z,45.92
2023-09-13T10:22:57.595Z,45.94
2023-09-13T10:28:02.616Z,45.61
2023-09-13T10:33:05.389Z,45.47
2023-09-13T10:38:16.288Z,45.84
2023-09-13T10:43:19.026Z,46.03
2023-09-13T10:48:22.797Z,45.63
2023-09-13T10:53:27.426Z,45.50
2023-09-13T10:58:31.139Z,44.95
2023-09-13T11:03:33.941Z,44.41
2023-09-13T11:08:36.029Z,44.32
2023-09-13T11:13:38.418Z,44.18
2023-09-13T11:18:49.916Z,43.92
2023-09-13T11:28:59.265Z,43.44
2023-09-13T11:34:01.188Z,43.63
2023-09-13T11:39:03.195Z,43.60
2023-09-13T11:44:05.597Z,44.05
2023-09-13T11:49:08.198Z,43.72
2023-09-13T11:54:17.364Z,43.64
2023-09-13T11:59:28.057Z,43.66
2023-09-13T12:09:39.499Z,43.27
2023-09-13T12:19:48.958Z,42.59
2023-09-13T12:24:54.224Z,42.88
2023-09-13T12:29:56.149Z,42.95
2023-09-13T12:34:58.418Z,42.77
2023-09-13T12:40:11.592Z,42.85
2023-09-13T12:45:14.013Z,42.81
2023-09-13T12:50:32.487Z,42.56
2023-09-13T12:55:35.637Z,42.52
2023-09-13T13:00:55.952Z,42.68
2023-09-13T13:06:04.197Z,42.10
2023-09-13T13:11:07.402Z,42.00
2023-09-13T13:16:30.767Z,41.58
2023-09-13T13:21:42.497Z,42.18
2023-09-13T13:26:44.588Z,42.05
2023-09-13T13:31:47.603Z,42.09
2023-09-13T13:36:49.536Z,41.93
2023-09-13T13:41:51.640Z,42.10
2023-09-13T13:46:53.657Z,42.11
2023-09-13T13:51:55.540Z,41.67
2023-09-13T13:57:01.135Z,41.50
2023-09-13T14:02:03.676Z,41.78
2023-09-13T14:07:05.563Z,41.70
2023-09-13T14:12:08.003Z,41.69
2023-09-13T14:17:10.069Z,41.27
2023-09-13T14:22:11.948Z,41.20
2023-09-13T14:27:15.274Z,40.80
2023-09-13T14:32:19.070Z,40.91
2023-09-13T14:37:21.033Z,40.66
2023-09-13T14:42:23.227Z,40.45
2023-09-13T14:47:27.975Z,40.68
2023-09-13T14:52:37.594Z,40.60
2023-09-13T14:57:39.827Z,40.76
2023-09-13T15:02:43.875Z,40.76
2023-09-13T15:07:45.902Z,40.87
2023-09-13T15:12:48.540Z,40.79
2023-09-13T15:17:50.626Z,40.97
2023-09-13T15:22:52.511Z,40.90
2023-09-13T15:27:54.471Z,40.80
2023-09-13T15:32:56.497Z,41.04
2023-09-13T15:37:58.559Z,40.48
2023-09-13T15:43:00.763Z,40.49
2023-09-13T15:48:02.828Z,40.73
2023-09-13T15:53:04.873Z,40.64
2023-09-13T15:58:06.704Z,40.49
2023-09-13T16:03:09.100Z,40.55
2023-09-13T16:08:11.028Z,40.49
2023-09-13T16:13:12.901Z,40.59
2023-09-13T16:18:14.898Z,40.31
2023-09-13T16:23:18.731Z,40.50
2023-09-13T16:28:20.769Z,40.77
2023-09-13T16:33:22.818Z,40.47
2023-09-13T16:38:24.704Z,40.53
2023-09-13T16:43:26.837Z,40.40
2023-09-13T16:48:34.885Z,40.24
2023-09-13T16:53:37.335Z,40.58
2023-09-13T16:58:39.169Z,40.02
2023-09-13T17:03:42.398Z,40.83
2023-09-13T17:08:44.836Z,40.74
2023-09-13T17:13:48.695Z,41.05
2023-09-13T17:18:50.650Z,40.83
2023-09-13T17:23:52.859Z,41.10
2023-09-13T17:28:54.754Z,40.96
2023-09-13T17:33:56.742Z,40.87
2023-09-13T17:38:58.599Z,41.08
2023-09-13T17:44:00.504Z,40.64
2023-09-13T17:49:02.645Z,40.76
2023-09-13T17:54:04.652Z,40.75
2023-09-13T17:59:06.685Z,40.64
2023-09-13T18:04:08.676Z,40.70
2023-09-13T18:09:10.727Z,41.19
2023-09-13T18:14:12.754Z,41.00
2023-09-13T18:19:14.711Z,41.32
2023-09-13T18:24:22.814Z,41.13
2023-09-13T18:29:31.714Z,41.29
2023-09-13T18:34:41.452Z,40.64
2023-09-13T18:39:43.421Z,40.82
2023-09-13T18:44:45.406Z,40.68
2023-09-13T18:49:47.347Z,40.59
2023-09-13T18:54:49.394Z,40.63
2023-09-13T18:59:51.611Z,40.84
2023-09-13T19:04:53.664Z,40.86
2023-09-13T19:09:55.647Z,40.81
2023-09-13T19:14:57.617Z,40.95
2023-09-13T19:19:59.536Z,40.86
2023-09-13T19:25:01.612Z,40.88
2023-09-13T19:30:03.815Z,41.12
2023-09-13T19:35:06.191Z,41.13
2023-09-13T19:40:09.268Z,41.34
2023-09-13T19:45:11.442Z,39.98
2023-09-13T19:50:13.304Z,39.75
2023-09-13T19:55:15.427Z,39.66
2023-09-13T20:00:17.667Z,39.89
2023-09-13T20:05:20.993Z,40.02
2023-09-13T20:10:25.694Z,39.63
2023-09-13T20:15:27.729Z,40.46
2023-09-13T20:20:29.677Z,40.61
2023-09-13T20:25:36.593Z,40.44
2023-09-13T20:30:40.529Z,40.69
2023-09-13T20:35:44.424Z,41.16
2023-09-13T20:40:46.563Z,41.05
2023-09-13T20:45:50.452Z,41.48
2023-09-13T20:50:53.283Z,41.95
2023-09-13T20:55:55.341Z,41.91
2023-09-13T21:00:57.269Z,41.80
2023-09-13T21:05:59.113Z,41.59
2023-09-13T21:11:02.440Z,41.68
2023-09-13T21:16:07.213Z,41.67
2023-09-13T21:21:10.208Z,42.00
2023-09-13T21:26:12.213Z,41.86
2023-09-13T21:31:14.203Z,41.65
2023-09-13T21:36:16.234Z,41.56
2023-09-13T21:41:18.200Z,41.71
2023-09-13T21:46:20.269Z,41.94
2023-09-13T21:51:22.346Z,41.69
2023-09-13T21:56:24.273Z,41.91
2023-09-13T22:01:26.547Z,41.57
2023-09-13T22:06:28.510Z,41.71
2023-09-13T22:11:30.534Z,41.80
2023-09-13T22:16:32.686Z,41.78
2023-09-13T22:21:35.348Z,42.00
2023-09-13T22:26:37.295Z,41.64
2023-09-13T22:31:39.333Z,41.84
2023-09-13T22:36:41.387Z,41.88
2023-09-13T22:41:44.237Z,41.67
2023-09-13T22:46:47.383Z,41.89
2023-09-13T22:51:50.382Z,41.83
2023-09-13T22:56:52.552Z,41.91
2023-09-13T23:01:54.474Z,41.69
2023-09-13T23:06:56.515Z,41.97
2023-09-13T23:11:58.482Z,41.80
2023-09-13T23:17:00.431Z,41.74
2023-09-13T23:22:03.808Z,41.74
2023-09-13T23:43:30.362Z,41.78
2023-09-13T23:48:33.816Z,41.95
2023-09-13T23:53:36.868Z,42.03
2023-09-13T23:58:38.656Z,41.79
